Fort McMurray Airport
CYMM : rendu visible

Aérodrome :











RETROUVEZ-NOUS SUR...

 
LOGIN :

S'inscrire | Disclaimer

   EN    FR    IT 

 









Légende :    VFR   VFR Marginal   IFR   IFR Intensif   IFR Très Intensif
Visi : 
Plafond : 
>= 8 km
>= 3000ft
5 à 8 km
1000 à 3000 ft
1500m à 5 km
500 à 1000 ft
800 à 1500m
200 à 500 ft
< 800m
< 200 ft
Symboles :   Orages  Brouillard  Fortes neiges  Fortes précipitations  Vent > 20 kt






- Altitude de l'aérodrome : 1211 ft
- Code IATA : YMM


CYMM - Fort McMurray

DERNIER METAR :
  • 201000Z AUTO 25009KT 9SM CLR M01/M10 A2983 RMK SLP125

METARs EXPIRÉS :
  • 200900Z AUTO 26004KT 9SM CLR M02/M10 A2985 RMK SLP135
  • 200800Z AUTO 22010KT 9SM CLR M01/M09 A2987 RMK SLP142

TAF TAF CYMM
Valide du 20 à 07h jusqu'au 20 à 19h UTC


200638Z 2007/2019 24010KT P6SM FEW250 RMK FCST BASED ON AUTO OBS. NXT FCST BY 201300Z



MET'MAP, la Météo Aéronautique d'un coup d'oeil ! - Copyright ORBIFLY Décembre 2007 - Disclaimer

ORBIFLY MET'MAP TEAM :

Programmation & Développement : Alexandra Zaïnal
Sur une idée originale de : Baudouin d'Aumeries
Assistance à la programmation : Marc-Olivier Méhu
Soutien technique & logistique : Manuel Goepfert

Contact : metmap@orbifly.com




SOURCES & CREDITS :

   NOAA       Earth
Advisory